Terminal Aerodrome Forecast
Issued by NWS Huntsville, AL

Home | Current Version | Previous Version | Text Only | Print | Product List | Glossary On
Versions: 1 2 3 4 5 6 7 8 9 10 11 12 13 14 15 16 17 18 19 20 21 22 23 24 25 26 27 28 29 30 31 32 33 34 35 36
000
FTUS44 KHUN 230057 AAA
TAFHSV
TAF AMD
KHSV 230057Z 2301/2324 16013KT P6SM VCSH SCT010 BKN020
     FM231500 20015G25KT P6SM VCSH BKN015
     FM231900 20017G25KT 5SM -SHRA BR BKN010 OVC025
      TEMPO 2320/2323 3SM TSRA BR BKN015CB=

USA.gov is the U.S. government's official web portal to all federal, state and local government web resources and services.